createdAt,value
2017-09-07T00:00:53.550Z,0
2017-09-07T00:01:53.889Z,0
2017-09-07T00:02:53.968Z,0
2017-09-07T00:03:53.960Z,0
2017-09-07T00:04:53.990Z,0
2017-09-07T00:05:54.024Z,0
2017-09-07T00:06:54.054Z,0
2017-09-07T00:07:53.804Z,0
2017-09-07T00:08:54.108Z,0
2017-09-07T00:09:54.121Z,0
2017-09-07T00:10:54.157Z,0
2017-09-07T00:11:54.195Z,0
2017-09-07T00:12:53.587Z,0
2017-09-07T00:13:54.194Z,0
2017-09-07T00:14:54.313Z,0
2017-09-07T00:15:53.410Z,0
2017-09-07T00:16:53.765Z,0
2017-09-07T00:17:54.410Z,0
2017-09-07T00:18:54.097Z,0
2017-09-07T00:19:54.128Z,0
2017-09-07T00:20:54.787Z,0
2017-09-07T00:21:54.531Z,0
2017-09-07T00:22:54.600Z,0
2017-09-07T00:23:55.543Z,0
2017-09-07T00:24:54.649Z,0
2017-09-07T00:25:55.632Z,0
2017-09-07T00:26:55.355Z,0
2017-09-07T00:27:55.385Z,0
2017-09-07T00:28:55.149Z,0
2017-09-07T00:29:55.520Z,0
2017-09-07T00:30:55.527Z,0
2017-09-07T00:31:56.202Z,0
2017-09-07T00:32:56.520Z,0
2017-09-07T00:33:56.528Z,0
2017-09-07T00:34:57.133Z,0
2017-09-07T00:35:57.158Z,0
2017-09-07T00:36:56.901Z,0
2017-09-07T00:37:56.914Z,0
2017-09-07T00:38:57.890Z,0
2017-09-07T00:39:57.609Z,0
2017-09-07T00:40:57.627Z,0
2017-09-07T00:41:57.952Z,0
2017-09-07T00:42:58.305Z,0
2017-09-07T00:43:58.652Z,0
2017-09-07T00:44:58.671Z,0
2017-09-07T00:45:58.999Z,0
2017-09-07T00:46:59.329Z,0
2017-09-07T00:47:59.020Z,0
2017-09-07T00:48:59.392Z,0
2017-09-07T00:49:59.092Z,0
2017-09-07T00:50:59.428Z,0
2017-09-07T00:51:59.186Z,0
2017-09-07T00:52:59.216Z,0
2017-09-07T00:53:59.527Z,0
2017-09-07T00:54:59.566Z,0
2017-09-07T00:55:59.268Z,0
2017-09-07T00:56:59.327Z,0
2017-09-07T00:57:59.342Z,0
2017-09-07T00:58:59.312Z,0
2017-09-07T00:59:59.988Z,0
2017-09-07T01:01:00.032Z,0
2017-09-07T01:02:00.052Z,0
2017-09-07T01:03:00.095Z,0
2017-09-07T01:04:00.127Z,0
2017-09-07T01:05:00.188Z,0
2017-09-07T01:06:00.188Z,0
2017-09-07T01:06:59.869Z,0
2017-09-07T01:07:59.895Z,0
2017-09-07T01:09:00.270Z,0
2017-09-07T01:10:00.290Z,0
2017-09-07T01:11:00.319Z,0
2017-09-07T01:12:00.328Z,0
2017-09-07T01:13:00.713Z,0
2017-09-07T01:14:00.705Z,0
2017-09-07T01:15:00.781Z,0
2017-09-07T01:16:01.088Z,0
2017-09-07T01:17:01.118Z,0
2017-09-07T01:18:00.887Z,0
2017-09-07T01:19:00.708Z,0
2017-09-07T01:20:01.702Z,0
2017-09-07T01:21:02.036Z,0
2017-09-07T01:22:02.068Z,0
2017-09-07T01:23:02.105Z,0
2017-09-07T01:24:02.156Z,0
2017-09-07T01:25:02.122Z,0
2017-09-07T01:26:02.177Z,0
2017-09-07T01:27:02.201Z,0
2017-09-07T01:28:02.238Z,0
2017-09-07T01:29:01.933Z,0
2017-09-07T01:30:02.436Z,0
2017-09-07T01:31:02.307Z,0
2017-09-07T01:32:02.034Z,0
2017-09-07T01:33:02.069Z,0
2017-09-07T01:34:01.809Z,0
2017-09-07T01:35:02.231Z,0
2017-09-07T01:36:02.471Z,0
2017-09-07T01:37:02.505Z,0
2017-09-07T01:38:02.293Z,0
2017-09-07T01:39:02.303Z,0
2017-09-07T01:40:02.468Z,0
2017-09-07T01:41:02.338Z,0
2017-09-07T01:42:02.687Z,0
2017-09-07T01:43:02.734Z,0
2017-09-07T01:44:02.433Z,0
2017-09-07T01:45:02.469Z,0
2017-09-07T01:46:02.803Z,0
2017-09-07T01:47:02.824Z,0
2017-09-07T01:48:01.960Z,0
2017-09-07T01:49:02.598Z,0
2017-09-07T01:50:02.951Z,0
2017-09-07T01:51:03.005Z,0
2017-09-07T01:52:02.997Z,0
2017-09-07T01:53:03.027Z,0
2017-09-07T01:54:03.707Z,0
2017-09-07T01:55:03.436Z,0
2017-09-07T01:56:04.182Z,0
2017-09-07T01:57:04.142Z,0
2017-09-07T01:58:03.511Z,0
2017-09-07T01:59:04.197Z,0
2017-09-07T02:00:03.912Z,0
2017-09-07T02:01:03.904Z,0
2017-09-07T02:02:04.045Z,0
2017-09-07T02:03:04.814Z,0
2017-09-07T02:04:04.741Z,0
2017-09-07T02:05:04.924Z,0
2017-09-07T02:06:04.809Z,0
2017-09-07T02:07:04.848Z,0
2017-09-07T02:08:04.236Z,0
2017-09-07T02:09:04.867Z,0
2017-09-07T02:10:04.962Z,0
2017-09-07T02:11:05.572Z,0
2017-09-07T02:12:04.996Z,0
2017-09-07T02:13:05.658Z,0
2017-09-07T02:14:05.375Z,0
2017-09-07T02:15:05.596Z,0
2017-09-07T02:16:05.814Z,0
2017-09-07T02:17:05.815Z,0
2017-09-07T02:18:05.573Z,0
2017-09-07T02:19:05.579Z,0
2017-09-07T02:20:05.307Z,0
2017-09-07T02:21:06.007Z,0
2017-09-07T02:22:05.724Z,0
2017-09-07T02:23:06.043Z,0
2017-09-07T02:24:06.139Z,0
2017-09-07T02:25:06.502Z,0
2017-09-07T02:26:06.181Z,0
2017-09-07T02:27:06.568Z,0
2017-09-07T02:28:06.586Z,0
2017-09-07T02:29:06.577Z,0
2017-09-07T02:30:06.344Z,0
2017-09-07T02:31:06.413Z,0
2017-09-07T02:32:07.048Z,0
2017-09-07T02:33:07.344Z,0
2017-09-07T02:34:07.381Z,0
2017-09-07T02:35:07.504Z,0
2017-09-07T02:36:06.812Z,0
2017-09-07T02:37:07.199Z,0
2017-09-07T02:38:07.487Z,0
2017-09-07T02:39:07.855Z,0
2017-09-07T02:40:07.373Z,0
2017-09-07T02:41:08.465Z,0
2017-09-07T02:42:08.069Z,0
2017-09-07T02:43:08.413Z,0
2017-09-07T02:44:08.512Z,0
2017-09-07T02:45:09.180Z,0
2017-09-07T02:46:08.862Z,0
2017-09-07T02:47:09.008Z,0
2017-09-07T02:48:09.042Z,0
2017-09-07T02:49:09.369Z,0
2017-09-07T02:50:09.485Z,0
2017-09-07T02:51:09.452Z,0
2017-09-07T02:52:09.497Z,0
2017-09-07T02:53:09.236Z,0
2017-09-07T02:54:09.233Z,0
2017-09-07T02:55:09.693Z,0
2017-09-07T02:56:09.329Z,0
2017-09-07T02:57:09.611Z,0
2017-09-07T02:58:09.693Z,0
2017-09-07T02:59:09.053Z,0
2017-09-07T03:00:09.516Z,0
2017-09-07T03:01:09.449Z,0
2017-09-07T03:02:09.810Z,0
2017-09-07T03:03:10.564Z,0
2017-09-07T03:04:10.188Z,0
2017-09-07T03:05:10.209Z,0
2017-09-07T03:06:10.577Z,0
2017-09-07T03:07:10.253Z,0
2017-09-07T03:08:10.646Z,0
2017-09-07T03:09:10.332Z,0
2017-09-07T03:10:10.143Z,0
2017-09-07T03:11:10.493Z,0
2017-09-07T03:12:10.837Z,0
2017-09-07T03:13:10.877Z,0
2017-09-07T03:14:11.224Z,0
2017-09-07T03:15:11.826Z,0
2017-09-07T03:16:11.626Z,0
2017-09-07T03:17:11.733Z,0
2017-09-07T03:18:12.709Z,0
2017-09-07T03:19:12.725Z,0
2017-09-07T03:20:13.048Z,0
2017-09-07T03:21:12.811Z,0
2017-09-07T03:22:12.545Z,0
2017-09-07T03:23:12.876Z,0
2017-09-07T03:24:13.274Z,0
2017-09-07T03:25:13.045Z,0
2017-09-07T03:26:12.717Z,0
2017-09-07T03:27:13.682Z,0
2017-09-07T03:28:13.713Z,0
2017-09-07T03:29:13.385Z,0
2017-09-07T03:30:13.384Z,0
2017-09-07T03:31:13.740Z,0
2017-09-07T03:32:14.341Z,0
2017-09-07T03:33:14.065Z,0
2017-09-07T03:34:14.383Z,0
2017-09-07T03:35:14.713Z,0
2017-09-07T03:36:15.072Z,0
2017-09-07T03:37:14.466Z,0
2017-09-07T03:38:14.843Z,0
2017-09-07T03:39:14.852Z,0
2017-09-07T03:40:14.715Z,0
2017-09-07T03:41:15.237Z,0
2017-09-07T03:42:15.253Z,0
2017-09-07T03:43:14.976Z,0
2017-09-07T03:44:15.634Z,0
2017-09-07T03:45:15.778Z,0
2017-09-07T03:46:15.064Z,0
2017-09-07T03:47:15.695Z,0
2017-09-07T03:48:15.781Z,0
2017-09-07T03:49:16.080Z,0
2017-09-07T03:50:15.945Z,0
2017-09-07T03:51:16.589Z,0
2017-09-07T03:52:16.639Z,0
2017-09-07T03:53:16.376Z,0
2017-09-07T03:54:16.708Z,0
2017-09-07T03:55:17.206Z,0
2017-09-07T03:56:17.128Z,0
2017-09-07T03:57:17.089Z,0
2017-09-07T03:58:16.848Z,0
2017-09-07T03:59:16.881Z,0
2017-09-07T04:00:17.021Z,0
2017-09-07T04:01:17.654Z,0
2017-09-07T04:02:17.734Z,4
2017-09-07T04:03:16.879Z,4
2017-09-07T04:04:17.848Z,4
2017-09-07T04:05:17.989Z,4
2017-09-07T04:06:17.956Z,4
2017-09-07T04:07:17.934Z,4
2017-09-07T04:08:17.648Z,8
2017-09-07T04:09:18.636Z,8
2017-09-07T04:10:18.356Z,8
2017-09-07T04:11:18.706Z,12
2017-09-07T04:12:18.422Z,12
2017-09-07T04:13:18.772Z,16
2017-09-07T04:14:18.835Z,16
2017-09-07T04:15:19.152Z,16
2017-09-07T04:16:19.187Z,20
2017-09-07T04:17:19.224Z,24
2017-09-07T04:18:18.964Z,32
2017-09-07T04:19:19.282Z,36
2017-09-07T04:20:19.624Z,40
2017-09-07T04:21:19.627Z,44
2017-09-07T04:22:19.673Z,44
2017-09-07T04:23:19.711Z,48
2017-09-07T04:24:19.427Z,52
2017-09-07T04:25:19.865Z,56
2017-09-07T04:26:19.896Z,60
2017-09-07T04:27:20.197Z,76
2017-09-07T04:28:20.563Z,72
2017-09-07T04:29:19.958Z,88
2017-09-07T04:30:20.465Z,88
2017-09-07T04:31:20.707Z,92
2017-09-07T04:32:20.436Z,120
2017-09-07T04:33:20.499Z,128
2017-09-07T04:34:20.828Z,128
2017-09-07T04:35:21.263Z,148
2017-09-07T04:36:21.174Z,136
2017-09-07T04:37:20.899Z,156
2017-09-07T04:38:21.233Z,188
2017-09-07T04:39:20.967Z,188
2017-09-07T04:40:21.411Z,188
2017-09-07T04:41:21.059Z,200
2017-09-07T04:42:21.027Z,216
2017-09-07T04:43:21.403Z,216
2017-09-07T04:44:21.148Z,184
2017-09-07T04:45:21.369Z,204
2017-09-07T04:46:21.194Z,264
2017-09-07T04:47:21.203Z,280
2017-09-07T04:48:21.882Z,296
2017-09-07T04:49:21.608Z,288
2017-09-07T04:50:21.944Z,308
2017-09-07T04:51:21.977Z,324
2017-09-07T04:52:21.364Z,308
2017-09-07T04:53:21.758Z,352
2017-09-07T04:54:22.154Z,332
2017-09-07T04:55:22.171Z,392
2017-09-07T04:56:22.269Z,416
2017-09-07T04:57:23.255Z,416
2017-09-07T04:58:23.283Z,404
2017-09-07T04:59:22.733Z,472
2017-09-07T05:00:23.361Z,496
2017-09-07T05:01:24.021Z,536
2017-09-07T05:02:23.908Z,512
2017-09-07T05:03:24.137Z,472
2017-09-07T05:04:24.115Z,544
2017-09-07T05:05:24.165Z,580
2017-09-07T05:06:24.156Z,624
2017-09-07T05:07:24.205Z,636
2017-09-07T05:08:24.238Z,624
2017-09-07T05:09:24.274Z,608
2017-09-07T05:10:24.573Z,660
2017-09-07T05:11:24.332Z,688
2017-09-07T05:12:24.325Z,728
2017-09-07T05:13:24.705Z,744
2017-09-07T05:14:24.401Z,852
2017-09-07T05:15:24.731Z,1032
2017-09-07T05:16:24.154Z,1008
2017-09-07T05:17:25.120Z,904
2017-09-07T05:18:24.842Z,948
2017-09-07T05:19:25.200Z,1164
2017-09-07T05:20:25.250Z,1264
2017-09-07T05:21:25.311Z,1148
2017-09-07T05:22:25.321Z,1224
2017-09-07T05:23:25.697Z,1184
2017-09-07T05:24:25.709Z,1120
2017-09-07T05:25:25.749Z,1384
2017-09-07T05:26:25.462Z,1520
2017-09-07T05:27:25.496Z,1444
2017-09-07T05:28:25.875Z,1696
2017-09-07T05:29:25.916Z,1728
2017-09-07T05:30:25.913Z,1536
2017-09-07T05:31:25.809Z,1952
2017-09-07T05:32:25.373Z,1744
2017-09-07T05:33:25.354Z,1612
2017-09-07T05:34:25.705Z,2004
2017-09-07T05:35:26.423Z,2196
2017-09-07T05:36:26.469Z,2496
2017-09-07T05:37:26.844Z,2496
2017-09-07T05:38:26.891Z,2840
2017-09-07T05:39:26.584Z,2816
2017-09-07T05:40:26.962Z,3036
2017-09-07T05:41:27.616Z,2956
2017-09-07T05:42:27.976Z,2708
2017-09-07T05:43:27.669Z,2568
2017-09-07T05:44:27.685Z,2340
2017-09-07T05:45:28.064Z,2772
2017-09-07T05:46:27.893Z,2220
2017-09-07T05:47:27.949Z,2184
2017-09-07T05:48:28.242Z,1656
2017-09-07T05:49:28.304Z,1552
2017-09-07T05:50:28.311Z,1648
2017-09-07T05:51:28.171Z,1856
2017-09-07T05:52:28.515Z,1972
2017-09-07T05:53:28.513Z,1992
2017-09-07T05:54:28.867Z,2360
2017-09-07T05:55:29.523Z,2728
2017-09-07T05:56:29.546Z,3368
2017-09-07T05:57:28.948Z,3756
2017-09-07T05:58:29.674Z,3876
2017-09-07T05:59:29.704Z,2736
2017-09-07T06:00:29.705Z,2612
2017-09-07T06:01:29.080Z,2064
2017-09-07T06:02:29.736Z,3328
2017-09-07T06:03:29.744Z,2228
2017-09-07T06:04:30.084Z,2928
2017-09-07T06:05:29.842Z,2788
2017-09-07T06:06:29.921Z,2236
2017-09-07T06:07:30.183Z,3720
2017-09-07T06:08:29.572Z,4132
2017-09-07T06:09:30.592Z,4308
2017-09-07T06:10:30.568Z,3504
2017-09-07T06:11:30.305Z,4108
2017-09-07T06:12:30.636Z,4744
2017-09-07T06:13:30.408Z,3932
2017-09-07T06:14:30.705Z,4260
2017-09-07T06:15:30.780Z,3292
2017-09-07T06:16:30.785Z,2692
2017-09-07T06:17:31.168Z,2848
2017-09-07T06:18:31.182Z,2760
2017-09-07T06:19:30.320Z,3564
2017-09-07T06:20:30.683Z,4432
2017-09-07T06:21:31.741Z,3492
2017-09-07T06:22:31.435Z,3776
2017-09-07T06:23:31.774Z,5108
2017-09-07T06:24:31.179Z,8664
2017-09-07T06:25:31.838Z,5092
2017-09-07T06:26:32.168Z,2732
2017-09-07T06:27:31.644Z,3180
2017-09-07T06:28:32.580Z,2572
2017-09-07T06:29:31.977Z,2216
2017-09-07T06:30:32.950Z,2096
2017-09-07T06:31:33.001Z,3164
2017-09-07T06:32:33.010Z,4276
2017-09-07T06:33:32.757Z,3484
2017-09-07T06:34:33.177Z,3344
2017-09-07T06:35:32.922Z,3300
2017-09-07T06:36:33.214Z,3044
2017-09-07T06:37:32.934Z,3184
2017-09-07T06:38:33.258Z,3440
2017-09-07T06:39:33.637Z,5076
2017-09-07T06:40:33.674Z,5456
2017-09-07T06:41:33.682Z,5748
2017-09-07T06:42:33.384Z,6344
2017-09-07T06:43:33.772Z,5396
2017-09-07T06:44:32.816Z,5744
2017-09-07T06:45:33.526Z,6844
2017-09-07T06:46:33.883Z,9972
2017-09-07T06:47:33.626Z,10856
2017-09-07T06:48:33.981Z,10352
2017-09-07T06:49:34.623Z,10060
2017-09-07T06:50:34.949Z,7292
2017-09-07T06:51:35.425Z,9180
2017-09-07T06:52:35.374Z,7328
2017-09-07T06:53:35.445Z,6756
2017-09-07T06:54:35.169Z,7388
2017-09-07T06:55:35.863Z,8744
2017-09-07T06:56:35.721Z,7624
2017-09-07T06:57:35.919Z,4772
2017-09-07T06:58:36.585Z,4488
2017-09-07T06:59:35.988Z,3396
2017-09-07T07:00:36.944Z,3520
2017-09-07T07:01:37.016Z,3828
2017-09-07T07:02:37.147Z,2608
2017-09-07T07:03:36.783Z,2440
2017-09-07T07:04:36.778Z,2408
2017-09-07T07:05:36.519Z,2460
2017-09-07T07:06:36.877Z,3220
2017-09-07T07:07:36.963Z,4012
2017-09-07T07:08:37.309Z,5208
2017-09-07T07:09:37.686Z,4940
2017-09-07T07:10:37.405Z,3268
2017-09-07T07:11:37.200Z,3164
2017-09-07T07:12:37.549Z,4176
2017-09-07T07:13:37.892Z,5068
2017-09-07T07:14:38.585Z,4768
2017-09-07T07:15:38.314Z,4856
2017-09-07T07:16:38.314Z,4832
2017-09-07T07:17:38.941Z,6224
2017-09-07T07:18:38.980Z,5792
2017-09-07T07:19:39.053Z,6568
2017-09-07T07:20:38.751Z,9268
2017-09-07T07:21:39.101Z,10020
2017-09-07T07:22:38.805Z,7868
2017-09-07T07:23:38.844Z,7560
2017-09-07T07:24:39.184Z,6172
2017-09-07T07:25:39.487Z,4904
2017-09-07T07:26:40.183Z,5544
2017-09-07T07:27:40.207Z,5516
2017-09-07T07:28:40.288Z,5308
2017-09-07T07:29:40.317Z,6612
2017-09-07T07:30:40.310Z,6752
2017-09-07T07:31:40.393Z,7084
2017-09-07T07:32:40.087Z,8872
2017-09-07T07:33:39.814Z,8516
2017-09-07T07:34:40.779Z,6988
2017-09-07T07:35:41.085Z,6636
2017-09-07T07:36:40.532Z,6656
2017-09-07T07:37:40.929Z,5884
2017-09-07T07:38:40.908Z,6556
2017-09-07T07:39:41.279Z,6192
2017-09-07T07:40:41.577Z,5008
2017-09-07T07:41:41.278Z,4492
2017-09-07T07:42:41.400Z,4356
2017-09-07T07:43:41.413Z,4152
2017-09-07T07:44:41.457Z,3044
2017-09-07T07:45:41.164Z,3524
2017-09-07T07:46:41.520Z,3900
2017-09-07T07:47:41.514Z,4288
2017-09-07T07:48:41.587Z,4364
2017-09-07T07:49:41.646Z,4172
2017-09-07T07:50:41.029Z,4512
2017-09-07T07:51:41.670Z,4848
2017-09-07T07:52:42.302Z,5204
2017-09-07T07:53:41.407Z,5016
2017-09-07T07:54:41.752Z,5288
2017-09-07T07:55:42.478Z,4740
2017-09-07T07:56:42.833Z,4904
2017-09-07T07:57:43.214Z,5256
2017-09-07T07:58:43.223Z,4568
2017-09-07T07:59:43.268Z,5380
2017-09-07T08:00:42.386Z,4540
2017-09-07T08:01:43.313Z,5052
2017-09-07T08:02:43.401Z,5092
2017-09-07T08:03:43.727Z,6360
2017-09-07T08:04:43.780Z,6372
2017-09-07T08:05:43.486Z,7428
2017-09-07T08:06:43.814Z,8272
2017-09-07T08:07:43.584Z,8164
2017-09-07T08:08:43.573Z,7804
2017-09-07T08:09:43.613Z,8072
2017-09-07T08:10:44.080Z,7164
2017-09-07T08:11:43.987Z,7352
2017-09-07T08:12:44.049Z,8780
2017-09-07T08:13:43.743Z,8588
2017-09-07T08:14:43.779Z,8104
2017-09-07T08:15:43.819Z,7332
2017-09-07T08:16:43.546Z,7424
2017-09-07T08:17:43.587Z,7632
2017-09-07T08:18:43.958Z,6644
2017-09-07T08:19:44.257Z,6292
2017-09-07T08:20:44.888Z,6572
2017-09-07T08:21:44.957Z,7400
2017-09-07T08:22:45.113Z,6048
2017-09-07T08:23:45.463Z,5308
2017-09-07T08:24:45.487Z,6604
2017-09-07T08:25:45.247Z,6012
2017-09-07T08:26:45.327Z,8584
2017-09-07T08:27:45.256Z,8720
2017-09-07T08:28:45.679Z,9744
2017-09-07T08:29:46.021Z,10744
2017-09-07T08:30:45.711Z,10608
2017-09-07T08:31:46.376Z,8636
2017-09-07T08:32:46.355Z,8768
2017-09-07T08:33:46.640Z,8516
2017-09-07T08:34:46.674Z,8444
2017-09-07T08:35:47.244Z,9064
2017-09-07T08:36:46.754Z,9592
2017-09-07T08:37:46.474Z,8848
2017-09-07T08:38:47.453Z,8064
2017-09-07T08:39:47.501Z,7104
2017-09-07T08:40:47.513Z,4852
2017-09-07T08:41:47.256Z,8936
2017-09-07T08:42:47.587Z,9992
2017-09-07T08:43:47.624Z,8804
2017-09-07T08:44:47.139Z,8972
2017-09-07T08:45:47.826Z,8308
2017-09-07T08:46:47.511Z,11712
2017-09-07T08:47:47.890Z,9988
2017-09-07T08:48:47.923Z,8116
2017-09-07T08:49:47.610Z,9752
2017-09-07T08:50:48.012Z,9432
2017-09-07T08:51:48.007Z,7184
2017-09-07T08:52:48.017Z,6724
2017-09-07T08:53:48.683Z,8596
2017-09-07T08:54:48.741Z,11852
2017-09-07T08:55:48.466Z,10524
2017-09-07T08:56:48.155Z,8100
2017-09-07T08:57:48.828Z,5300
2017-09-07T08:58:48.846Z,7592
2017-09-07T08:59:48.881Z,7636
2017-09-07T09:00:48.916Z,5816
2017-09-07T09:01:49.014Z,7368
2017-09-07T09:02:48.972Z,7976
2017-09-07T09:03:48.982Z,9364
2017-09-07T09:04:49.342Z,8948
2017-09-07T09:05:48.754Z,9520
2017-09-07T09:06:49.749Z,7692
2017-09-07T09:07:49.475Z,7644
2017-09-07T09:08:49.853Z,6008
2017-09-07T09:09:49.569Z,6720
2017-09-07T09:10:50.210Z,8048
2017-09-07T09:11:49.999Z,9696
2017-09-07T09:12:50.011Z,8184
2017-09-07T09:13:50.334Z,7252
2017-09-07T09:14:50.079Z,9444
2017-09-07T09:15:50.077Z,6800
2017-09-07T09:16:50.214Z,6548
2017-09-07T09:17:50.884Z,10640
2017-09-07T09:18:50.924Z,15024
2017-09-07T09:19:50.645Z,18432
2017-09-07T09:20:50.350Z,14832
2017-09-07T09:21:50.707Z,12352
2017-09-07T09:22:51.371Z,14868
2017-09-07T09:23:51.383Z,5844
2017-09-07T09:24:51.114Z,7888
2017-09-07T09:25:51.468Z,13332
2017-09-07T09:26:51.152Z,35264
2017-09-07T09:27:51.176Z,12056
2017-09-07T09:28:51.885Z,69888
2017-09-07T09:29:51.612Z,70016
2017-09-07T09:30:52.507Z,11048
2017-09-07T09:31:51.680Z,16960
2017-09-07T09:32:52.347Z,64864
2017-09-07T09:33:51.751Z,14412
2017-09-07T09:34:52.115Z,8420
2017-09-07T09:35:52.444Z,7116
2017-09-07T09:36:52.176Z,6584
2017-09-07T09:37:52.512Z,6720
2017-09-07T09:38:52.632Z,12928
2017-09-07T09:39:52.079Z,7188
2017-09-07T09:40:52.319Z,70720
2017-09-07T09:41:52.375Z,8180
2017-09-07T09:42:52.418Z,5796
2017-09-07T09:43:52.428Z,67872
2017-09-07T09:44:53.265Z,55840
2017-09-07T09:45:52.190Z,73408
2017-09-07T09:46:52.346Z,72544
2017-09-07T09:47:53.312Z,67936
2017-09-07T09:48:53.065Z,68672
2017-09-07T09:49:53.890Z,73056
2017-09-07T09:50:52.916Z,65312
2017-09-07T09:51:52.891Z,80064
2017-09-07T09:52:52.664Z,72576
2017-09-07T09:53:53.313Z,79392
2017-09-07T09:54:53.961Z,19008
2017-09-07T09:55:54.387Z,9028
2017-09-07T09:56:54.104Z,8024
2017-09-07T09:57:54.411Z,83392
2017-09-07T09:58:54.451Z,10160
2017-09-07T09:59:54.529Z,54752
2017-09-07T10:00:53.945Z,62432
2017-09-07T10:01:54.917Z,18656
2017-09-07T10:02:55.259Z,10060
2017-09-07T10:03:54.365Z,8216
2017-09-07T10:04:55.428Z,7388
2017-09-07T10:05:55.438Z,7024
2017-09-07T10:06:55.576Z,52224
2017-09-07T10:07:55.536Z,64832
2017-09-07T10:08:55.553Z,32736
2017-09-07T10:09:55.618Z,10048
2017-09-07T10:10:54.723Z,12836
2017-09-07T10:11:55.731Z,12260
2017-09-07T10:12:55.440Z,46912
2017-09-07T10:13:55.780Z,71232
2017-09-07T10:14:55.919Z,22368
2017-09-07T10:15:56.322Z,11520
2017-09-07T10:16:55.969Z,12744
2017-09-07T10:17:55.661Z,9248
2017-09-07T10:18:55.035Z,8140
2017-09-07T10:19:55.705Z,8276
2017-09-07T10:20:56.067Z,7792
2017-09-07T10:21:56.464Z,7820
2017-09-07T10:22:56.194Z,7072
2017-09-07T10:23:56.532Z,6972
2017-09-07T10:24:56.565Z,8396
2017-09-07T10:25:56.344Z,9140
2017-09-07T10:26:56.734Z,8944
2017-09-07T10:27:56.394Z,9436
2017-09-07T10:28:56.778Z,9320
2017-09-07T10:29:56.795Z,8548
2017-09-07T10:30:56.838Z,8848
2017-09-07T10:31:56.930Z,8856
2017-09-07T10:32:56.971Z,8100
2017-09-07T10:33:57.375Z,8872
2017-09-07T10:34:57.123Z,7212
2017-09-07T10:35:56.807Z,6420
2017-09-07T10:36:57.760Z,5280
2017-09-07T10:37:57.532Z,4860
2017-09-07T10:38:57.856Z,4368
2017-09-07T10:39:57.607Z,4112
2017-09-07T10:40:57.600Z,4112
2017-09-07T10:41:57.969Z,4152
2017-09-07T10:42:58.000Z,4468
2017-09-07T10:43:58.054Z,5456
2017-09-07T10:44:58.054Z,8240
2017-09-07T10:45:57.913Z,9936
2017-09-07T10:46:58.268Z,11920
2017-09-07T10:47:58.634Z,11936
2017-09-07T10:48:58.339Z,11448
2017-09-07T10:49:58.115Z,10800
2017-09-07T10:50:58.557Z,10260
2017-09-07T10:51:59.225Z,9964
2017-09-07T10:52:59.290Z,10172
2017-09-07T10:53:59.272Z,10524
2017-09-07T10:54:59.376Z,11292
2017-09-07T10:55:59.917Z,10992
2017-09-07T10:56:59.075Z,10396
2017-09-07T10:57:59.490Z,9948
2017-09-07T10:58:59.570Z,9600
2017-09-07T10:59:59.832Z,9532
2017-09-07T11:00:59.564Z,9212
2017-09-07T11:01:59.893Z,9240
2017-09-07T11:02:59.397Z,9624
2017-09-07T11:04:00.364Z,9360
2017-09-07T11:05:00.073Z,8468
2017-09-07T11:06:00.112Z,8108
2017-09-07T11:07:00.449Z,6376
2017-09-07T11:08:00.455Z,5312
2017-09-07T11:09:01.522Z,3956
2017-09-07T11:10:00.873Z,3140
2017-09-07T11:11:00.556Z,2116
2017-09-07T11:12:01.598Z,1792
2017-09-07T11:13:00.375Z,1968
2017-09-07T11:14:01.070Z,2216
2017-09-07T11:15:01.060Z,1628
2017-09-07T11:16:01.412Z,1804
2017-09-07T11:17:01.128Z,1896
2017-09-07T11:18:02.101Z,1996
2017-09-07T11:19:01.850Z,2516
2017-09-07T11:20:01.250Z,2400
2017-09-07T11:21:01.328Z,2524
2017-09-07T11:22:01.413Z,2844
2017-09-07T11:23:02.376Z,3516
2017-09-07T11:24:02.384Z,3932
2017-09-07T11:25:02.089Z,4156
2017-09-07T11:26:02.456Z,3824
2017-09-07T11:27:02.184Z,3772
2017-09-07T11:28:01.950Z,3660
2017-09-07T11:29:02.624Z,4308
2017-09-07T11:30:02.631Z,4908
2017-09-07T11:31:02.655Z,4340
2017-09-07T11:32:03.348Z,3484
2017-09-07T11:33:03.411Z,2652
2017-09-07T11:34:03.494Z,2332
2017-09-07T11:35:03.486Z,3072
2017-09-07T11:36:03.557Z,3844
2017-09-07T11:37:03.579Z,3504
2017-09-07T11:38:04.247Z,3544
2017-09-07T11:39:04.291Z,3952
2017-09-07T11:40:04.090Z,3892
2017-09-07T11:41:04.769Z,3520
2017-09-07T11:42:04.431Z,3000
2017-09-07T11:43:05.171Z,2776
2017-09-07T11:44:05.120Z,4544
2017-09-07T11:45:05.184Z,5660
2017-09-07T11:46:05.533Z,7576
2017-09-07T11:47:05.227Z,8548
2017-09-07T11:48:05.893Z,8408
2017-09-07T11:49:05.945Z,8316
2017-09-07T11:50:06.586Z,7000
2017-09-07T11:51:06.287Z,5880
2017-09-07T11:52:06.050Z,5944
2017-09-07T11:53:06.392Z,6140
2017-09-07T11:54:06.412Z,7052
2017-09-07T11:55:06.851Z,7200
2017-09-07T11:56:07.103Z,6740
2017-09-07T11:57:06.825Z,6340
2017-09-07T11:58:06.880Z,6160
2017-09-07T11:59:07.184Z,4800
2017-09-07T12:00:07.025Z,3648
2017-09-07T12:01:07.093Z,4012
2017-09-07T12:02:07.057Z,3180
2017-09-07T12:03:06.824Z,2064
2017-09-07T12:04:07.457Z,1720
2017-09-07T12:05:07.237Z,2448
2017-09-07T12:06:07.261Z,3520
2017-09-07T12:07:07.594Z,3968
2017-09-07T12:08:07.664Z,3316
2017-09-07T12:09:07.665Z,2784
2017-09-07T12:10:07.402Z,4732
2017-09-07T12:11:08.035Z,8624
2017-09-07T12:12:08.465Z,9716
2017-09-07T12:13:08.161Z,11008
2017-09-07T12:14:09.205Z,10384
2017-09-07T12:15:08.940Z,8544
2017-09-07T12:16:08.981Z,7424
2017-09-07T12:17:09.374Z,6408
2017-09-07T12:18:09.499Z,5948
2017-09-07T12:19:09.575Z,5164
2017-09-07T12:20:09.898Z,4828
2017-09-07T12:21:10.302Z,5444
2017-09-07T12:22:10.671Z,6172
2017-09-07T12:23:10.703Z,6036
2017-09-07T12:24:10.769Z,5756
2017-09-07T12:25:10.596Z,5496
2017-09-07T12:26:10.150Z,5264
2017-09-07T12:27:10.190Z,5096
2017-09-07T12:28:10.894Z,4776
2017-09-07T12:29:10.928Z,4148
2017-09-07T12:30:11.320Z,3952
2017-09-07T12:31:11.572Z,3844
2017-09-07T12:32:11.097Z,3864
2017-09-07T12:33:11.064Z,3868
2017-09-07T12:34:11.248Z,4064
2017-09-07T12:35:12.304Z,4256
2017-09-07T12:36:11.904Z,4392
2017-09-07T12:37:12.295Z,4264
2017-09-07T12:38:12.007Z,4260
2017-09-07T12:39:12.032Z,3984
2017-09-07T12:40:11.731Z,3828
2017-09-07T12:41:12.413Z,3588
2017-09-07T12:42:11.839Z,3556
2017-09-07T12:43:12.505Z,3612
2017-09-07T12:44:12.511Z,3592
2017-09-07T12:45:12.254Z,3656
2017-09-07T12:46:12.294Z,3748
2017-09-07T12:47:12.706Z,4580
2017-09-07T12:48:12.736Z,3596
2017-09-07T12:49:12.438Z,3140
2017-09-07T12:50:12.461Z,3020
2017-09-07T12:51:12.513Z,2884
2017-09-07T12:52:12.274Z,2548
2017-09-07T12:53:12.660Z,2380
2017-09-07T12:54:13.346Z,2180
2017-09-07T12:55:13.765Z,2068
2017-09-07T12:56:13.387Z,2244
2017-09-07T12:57:13.757Z,2680
2017-09-07T12:58:13.791Z,3632
2017-09-07T12:59:13.559Z,3132
2017-09-07T13:00:14.720Z,2448
2017-09-07T13:01:14.348Z,1636
2017-09-07T13:02:14.394Z,1568
2017-09-07T13:03:14.730Z,1548
2017-09-07T13:04:14.462Z,1568
2017-09-07T13:05:14.830Z,1768
2017-09-07T13:06:14.879Z,1292
2017-09-07T13:07:14.599Z,900
2017-09-07T13:08:14.615Z,772
2017-09-07T13:09:15.267Z,792
2017-09-07T13:10:15.094Z,1116
2017-09-07T13:11:15.070Z,2744
2017-09-07T13:12:15.080Z,3492
2017-09-07T13:13:15.150Z,3860
2017-09-07T13:14:14.910Z,3712
2017-09-07T13:15:15.209Z,4172
2017-09-07T13:16:14.897Z,4528
2017-09-07T13:17:15.204Z,4220
2017-09-07T13:18:14.638Z,4348
2017-09-07T13:19:15.872Z,4832
2017-09-07T13:20:15.904Z,4768
2017-09-07T13:21:15.989Z,4240
2017-09-07T13:22:15.665Z,3356
2017-09-07T13:23:16.073Z,3236
2017-09-07T13:24:15.823Z,3328
2017-09-07T13:25:16.099Z,2188
2017-09-07T13:26:15.494Z,1772
2017-09-07T13:27:16.176Z,1380
2017-09-07T13:28:16.608Z,1524
2017-09-07T13:29:16.702Z,2116
2017-09-07T13:30:16.832Z,2664
2017-09-07T13:31:16.311Z,3408
2017-09-07T13:32:17.071Z,3464
2017-09-07T13:33:16.461Z,3236
2017-09-07T13:34:16.852Z,3156
2017-09-07T13:35:17.553Z,3188
2017-09-07T13:36:17.472Z,3356
2017-09-07T13:37:17.229Z,3752
2017-09-07T13:38:17.653Z,4176
2017-09-07T13:39:17.648Z,4796
2017-09-07T13:40:17.762Z,5024
2017-09-07T13:41:17.708Z,5080
2017-09-07T13:42:17.970Z,5232
2017-09-07T13:43:17.462Z,5332
2017-09-07T13:44:18.071Z,5400
2017-09-07T13:45:17.849Z,4888
2017-09-07T13:46:17.869Z,4124